createdAt,value
2023-05-10T00:00:39.154Z,998.37
2023-05-10T00:01:40.079Z,998.36
2023-05-10T00:02:41.038Z,998.36
2023-05-10T00:03:42.075Z,998.36
2023-05-10T00:04:42.469Z,998.36
2023-05-10T00:05:43.618Z,998.34
2023-05-10T00:06:44.012Z,998.34
2023-05-10T00:07:44.853Z,998.33
2023-05-10T00:08:45.776Z,998.34
2023-05-10T00:09:46.606Z,998.35
2023-05-10T00:10:47.542Z,998.35
2023-05-10T00:11:48.670Z,998.36
2023-05-10T00:12:49.100Z,998.36
2023-05-10T00:13:49.982Z,998.36
2023-05-10T00:14:50.862Z,998.37
2023-05-10T00:15:51.788Z,998.37
2023-05-10T00:16:52.792Z,998.37
2023-05-10T00:17:53.564Z,998.37
2023-05-10T00:18:53.980Z,998.36
2023-05-10T00:19:54.865Z,998.34
2023-05-10T00:20:55.701Z,998.32
2023-05-10T00:21:56.592Z,998.31
2023-05-10T00:22:57.443Z,998.30
2023-05-10T00:23:58.653Z,998.30
2023-05-10T00:24:59.249Z,998.28
2023-05-10T00:26:00.134Z,998.26
2023-05-10T00:27:01.049Z,998.24
2023-05-10T00:28:01.883Z,998.22
2023-05-10T00:29:02.781Z,998.19
2023-05-10T00:30:03.973Z,998.19
2023-05-10T00:31:04.319Z,998.18
2023-05-10T00:32:05.224Z,998.17
2023-05-10T00:33:06.131Z,998.16
2023-05-10T00:34:07.116Z,998.15
2023-05-10T00:35:07.973Z,998.15
2023-05-10T00:36:09.138Z,998.15
2023-05-10T00:37:09.509Z,998.14
2023-05-10T00:38:10.369Z,998.15
2023-05-10T00:39:11.261Z,998.15
2023-05-10T00:40:12.135Z,998.16
2023-05-10T00:41:13.042Z,998.15
2023-05-10T00:42:14.210Z,998.16
2023-05-10T00:43:14.595Z,998.16
2023-05-10T00:44:15.502Z,998.15
2023-05-10T00:45:16.354Z,998.15
2023-05-10T00:46:17.249Z,998.15
2023-05-10T00:47:18.123Z,998.13
2023-05-10T00:48:19.009Z,998.14
2023-05-10T00:49:19.952Z,998.14
2023-05-10T00:50:20.806Z,998.14
2023-05-10T00:51:21.676Z,998.14
2023-05-10T00:52:22.567Z,998.15
2023-05-10T00:53:23.736Z,998.17
2023-05-10T00:54:24.137Z,998.15
2023-05-10T00:55:25.033Z,998.17
2023-05-10T00:56:25.911Z,998.18
2023-05-10T00:57:26.803Z,998.16
2023-05-10T00:58:27.684Z,998.17
2023-05-10T00:59:28.852Z,998.17
2023-05-10T01:00:29.195Z,998.17
2023-05-10T01:01:30.157Z,998.17
2023-05-10T01:02:31.113Z,998.17
2023-05-10T01:03:31.560Z,998.17
2023-05-10T01:04:32.477Z,998.17
2023-05-10T01:05:33.327Z,998.18
2023-05-10T01:06:34.186Z,998.18
2023-05-10T01:07:35.078Z,998.18
2023-05-10T01:08:35.965Z,998.18
2023-05-10T01:09:36.877Z,998.18
2023-05-10T01:10:37.736Z,998.18
2023-05-10T01:11:38.652Z,998.19
2023-05-10T01:12:39.530Z,998.19
2023-05-10T01:13:40.414Z,998.18
2023-05-10T01:14:41.317Z,998.19
2023-05-10T01:15:42.217Z,998.19
2023-05-10T01:16:43.098Z,998.19
2023-05-10T01:17:43.985Z,998.20
2023-05-10T01:18:44.870Z,998.20
2023-05-10T01:19:45.786Z,998.20
2023-05-10T01:20:46.628Z,998.21
2023-05-10T01:21:47.785Z,998.21
2023-05-10T01:22:48.158Z,998.21
2023-05-10T01:23:49.041Z,998.20
2023-05-10T01:24:49.989Z,998.21
2023-05-10T01:25:50.821Z,998.21
2023-05-10T01:26:51.688Z,998.21
2023-05-10T01:27:52.857Z,998.23
2023-05-10T01:28:53.197Z,998.23
2023-05-10T01:30:09.165Z,998.22
2023-05-10T01:30:55.914Z,998.22
2023-05-10T01:31:55.750Z,998.22
2023-05-10T01:32:56.719Z,998.21
2023-05-10T01:33:57.868Z,998.22
2023-05-10T01:34:58.281Z,998.22
2023-05-10T01:35:59.138Z,998.22
2023-05-10T01:37:00.068Z,998.23
2023-05-10T01:38:00.925Z,998.24
2023-05-10T01:39:01.796Z,998.24
2023-05-10T01:40:02.965Z,998.24
2023-05-10T01:41:03.344Z,998.24
2023-05-10T01:42:04.218Z,998.26
2023-05-10T01:43:05.120Z,998.25
2023-05-10T01:44:05.965Z,998.25
2023-05-10T01:45:06.859Z,998.24
2023-05-10T01:46:08.032Z,998.24
2023-05-10T01:47:08.395Z,998.23
2023-05-10T01:48:09.335Z,998.23
2023-05-10T01:49:10.170Z,998.23
2023-05-10T01:50:11.088Z,998.22
2023-05-10T01:51:11.949Z,998.23
2023-05-10T01:52:13.076Z,998.23
2023-05-10T01:53:13.454Z,998.25
2023-05-10T01:54:14.314Z,998.26
2023-05-10T01:55:15.200Z,998.27
2023-05-10T01:56:16.083Z,998.27
2023-05-10T01:57:16.962Z,998.26
2023-05-10T01:58:18.129Z,998.24
2023-05-10T01:59:18.481Z,998.24
2023-05-10T02:00:19.418Z,998.24
2023-05-10T02:01:20.337Z,998.24
2023-05-10T02:02:21.211Z,998.24
2023-05-10T02:03:22.147Z,998.22
2023-05-10T02:04:23.261Z,998.22
2023-05-10T02:05:23.697Z,998.23
2023-05-10T02:06:24.596Z,998.23
2023-05-10T02:07:25.437Z,998.24
2023-05-10T02:08:26.327Z,998.24
2023-05-10T02:09:27.198Z,998.25
2023-05-10T02:10:28.396Z,998.24
2023-05-10T02:11:28.752Z,998.26
2023-05-10T02:12:29.626Z,998.25
2023-05-10T02:13:30.586Z,998.28
2023-05-10T02:14:31.013Z,998.27
2023-05-10T02:15:31.946Z,998.32
2023-05-10T02:16:33.116Z,998.34
2023-05-10T02:17:33.517Z,998.32
2023-05-10T02:18:34.356Z,998.34
2023-05-10T02:19:35.221Z,998.36
2023-05-10T02:20:36.242Z,998.38
2023-05-10T02:21:37.080Z,998.38
2023-05-10T02:22:38.272Z,998.42
2023-05-10T02:23:38.619Z,998.43
2023-05-10T02:24:39.473Z,998.44
2023-05-10T02:25:40.385Z,998.45
2023-05-10T02:26:41.266Z,998.44
2023-05-10T02:27:42.133Z,998.53
2023-05-10T02:28:43.022Z,998.52
2023-05-10T02:29:44.182Z,998.59
2023-05-10T02:30:44.593Z,998.58
2023-05-10T02:31:45.523Z,998.59
2023-05-10T02:32:46.492Z,998.57
2023-05-10T02:33:47.362Z,998.55
2023-05-10T02:34:48.224Z,998.57
2023-05-10T02:35:49.428Z,998.56
2023-05-10T02:36:49.795Z,998.62
2023-05-10T02:37:50.689Z,998.57
2023-05-10T02:38:51.560Z,998.56
2023-05-10T02:39:52.421Z,998.57
2023-05-10T02:40:53.318Z,998.58
2023-05-10T02:41:54.500Z,998.67
2023-05-10T02:42:54.839Z,998.56
2023-05-10T02:43:55.704Z,998.65
2023-05-10T02:44:56.604Z,998.61
2023-05-10T02:45:57.495Z,998.61
2023-05-10T02:46:58.385Z,998.61
2023-05-10T02:47:59.300Z,998.61
2023-05-10T02:48:59.742Z,998.61
2023-05-10T02:50:00.649Z,998.62
2023-05-10T02:51:01.552Z,998.66
2023-05-10T02:52:02.408Z,998.62
2023-05-10T02:53:03.293Z,998.61
2023-05-10T02:54:04.456Z,998.63
2023-05-10T02:55:04.836Z,998.65
2023-05-10T02:56:05.766Z,998.68
2023-05-10T02:57:06.607Z,998.66
2023-05-10T02:58:07.495Z,998.66
2023-05-10T02:59:08.353Z,998.67
2023-05-10T03:00:09.515Z,998.65
2023-05-10T03:01:09.919Z,998.63
2023-05-10T03:02:10.800Z,998.63
2023-05-10T03:03:11.651Z,998.63
2023-05-10T03:04:12.535Z,998.64
2023-05-10T03:05:13.393Z,998.63
2023-05-10T03:06:14.311Z,998.63
2023-05-10T03:07:15.156Z,998.63
2023-05-10T03:08:16.056Z,998.65
2023-05-10T03:09:16.910Z,998.64
2023-05-10T03:10:18.050Z,998.65
2023-05-10T03:11:18.589Z,998.67
2023-05-10T03:12:19.741Z,998.68
2023-05-10T03:13:20.115Z,998.66
2023-05-10T03:14:21.003Z,998.68
2023-05-10T03:15:21.857Z,998.67
2023-05-10T03:16:22.828Z,998.70
2023-05-10T03:17:23.325Z,998.71
2023-05-10T03:18:24.445Z,998.71
2023-05-10T03:19:24.824Z,998.71
2023-05-10T03:20:25.691Z,998.75
2023-05-10T03:21:26.615Z,998.74
2023-05-10T03:22:27.473Z,998.74
2023-05-10T03:23:28.325Z,998.73
2023-05-10T03:24:29.496Z,998.76
2023-05-10T03:25:29.855Z,998.74
2023-05-10T03:26:30.777Z,998.77
2023-05-10T03:27:31.679Z,998.79
2023-05-10T03:28:32.550Z,998.77
2023-05-10T03:29:33.400Z,998.83
2023-05-10T03:30:34.564Z,998.80
2023-05-10T03:31:35.013Z,998.84
2023-05-10T03:32:35.927Z,998.83
2023-05-10T03:33:36.813Z,998.82
2023-05-10T03:34:37.664Z,998.82
2023-05-10T03:35:38.539Z,998.84
2023-05-10T03:36:39.740Z,998.82
2023-05-10T03:37:40.110Z,998.86
2023-05-10T03:38:40.960Z,998.88
2023-05-10T03:39:41.842Z,998.89
2023-05-10T03:40:42.708Z,998.87
2023-05-10T03:41:43.607Z,998.89
2023-05-10T03:42:44.751Z,998.88
2023-05-10T03:43:45.132Z,998.90
2023-05-10T03:44:45.993Z,998.90
2023-05-10T03:45:46.920Z,998.94
2023-05-10T03:46:47.787Z,998.91
2023-05-10T03:47:48.671Z,998.94
2023-05-10T03:48:49.838Z,998.95
2023-05-10T03:49:50.174Z,998.96
2023-05-10T03:50:51.042Z,998.95
2023-05-10T03:51:51.953Z,998.95
2023-05-10T03:52:54.632Z,998.99
2023-05-10T03:53:53.682Z,998.97
2023-05-10T03:54:54.546Z,998.99
2023-05-10T03:55:55.688Z,998.98
2023-05-10T03:56:56.074Z,999.02
2023-05-10T03:57:56.956Z,999.00
2023-05-10T03:58:57.817Z,999.05
2023-05-10T03:59:58.701Z,999.01
2023-05-10T04:00:59.580Z,999.05
2023-05-10T04:02:00.514Z,999.06
2023-05-10T04:03:01.437Z,999.06
2023-05-10T04:04:02.328Z,999.08
2023-05-10T04:05:03.185Z,999.07
2023-05-10T04:06:04.105Z,999.09
2023-05-10T04:07:05.301Z,999.10
2023-05-10T04:08:05.649Z,999.10
2023-05-10T04:09:06.522Z,999.12
2023-05-10T04:10:07.435Z,999.13
2023-05-10T04:11:08.320Z,999.14
2023-05-10T04:12:10.867Z,999.14
2023-05-10T04:13:10.007Z,999.15
2023-05-10T04:14:11.117Z,999.15
2023-05-10T04:15:11.497Z,999.16
2023-05-10T04:16:12.359Z,999.17
2023-05-10T04:17:13.386Z,999.18
2023-05-10T04:18:13.849Z,999.19
2023-05-10T04:19:14.732Z,999.19
2023-05-10T04:20:16.150Z,999.21
2023-05-10T04:21:16.196Z,999.22
2023-05-10T04:22:17.178Z,999.21
2023-05-10T04:23:18.042Z,999.22
2023-05-10T04:24:18.902Z,999.23
2023-05-10T04:25:19.773Z,999.25
2023-05-10T04:26:20.932Z,999.28
2023-05-10T04:27:21.347Z,999.29
2023-05-10T04:28:22.221Z,999.29
2023-05-10T04:29:23.130Z,999.31
2023-05-10T04:30:24.005Z,999.30
2023-05-10T04:31:25.031Z,999.32
2023-05-10T04:32:25.570Z,999.32
2023-05-10T04:33:25.939Z,999.34
2023-05-10T04:34:26.821Z,999.35
2023-05-10T04:35:27.694Z,999.35
2023-05-10T04:36:28.584Z,999.35
2023-05-10T04:37:29.469Z,999.36
2023-05-10T04:38:30.601Z,999.37
2023-05-10T04:39:30.973Z,999.38
2023-05-10T04:40:31.872Z,999.39
2023-05-10T04:41:32.721Z,999.39
2023-05-10T04:42:33.627Z,999.40
2023-05-10T04:43:34.522Z,999.39
2023-05-10T04:44:35.671Z,999.39
2023-05-10T04:45:36.023Z,999.39
2023-05-10T04:46:36.929Z,999.39
2023-05-10T04:47:37.957Z,999.41
2023-05-10T04:48:38.304Z,999.40
2023-05-10T04:49:39.286Z,999.39
2023-05-10T04:50:40.395Z,999.41
2023-05-10T04:51:40.769Z,999.40
2023-05-10T04:52:41.688Z,999.41
2023-05-10T04:53:46.448Z,999.43
2023-05-10T04:54:44.325Z,999.43
2023-05-10T04:55:44.183Z,999.43
2023-05-10T04:56:45.436Z,999.45
2023-05-10T04:57:46.821Z,999.45
2023-05-10T04:58:46.684Z,999.46
2023-05-10T04:59:50.215Z,999.48
2023-05-10T05:00:48.221Z,999.50
2023-05-10T05:01:49.127Z,999.51
2023-05-10T05:02:50.053Z,999.53
2023-05-10T05:03:51.482Z,999.54
2023-05-10T05:04:51.880Z,999.53
2023-05-10T05:05:52.754Z,999.55
2023-05-10T05:06:54.124Z,999.55
2023-05-10T05:07:54.569Z,999.57
2023-05-10T05:08:55.413Z,999.58
2023-05-10T05:09:56.305Z,999.60
2023-05-10T05:10:57.185Z,999.63
2023-05-10T05:11:58.074Z,999.66
2023-05-10T05:12:59.022Z,999.66
2023-05-10T05:13:59.965Z,999.68
2023-05-10T05:15:00.809Z,999.69
2023-05-10T05:16:01.221Z,999.72
2023-05-10T05:17:02.112Z,999.68
2023-05-10T05:18:03.098Z,999.69
2023-05-10T05:19:03.463Z,999.70
2023-05-10T05:20:04.362Z,999.71
2023-05-10T05:21:05.217Z,999.72
2023-05-10T05:22:06.422Z,999.74
2023-05-10T05:23:06.842Z,999.76
2023-05-10T05:24:07.718Z,999.75
2023-05-10T05:25:08.579Z,999.76
2023-05-10T05:26:09.449Z,999.77
2023-05-10T05:27:10.337Z,999.78
2023-05-10T05:28:11.255Z,999.78
2023-05-10T05:29:12.162Z,999.80
2023-05-10T05:30:13.001Z,999.81
2023-05-10T05:31:13.934Z,999.81
2023-05-10T05:32:14.775Z,999.81
2023-05-10T05:33:15.699Z,999.83
2023-05-10T05:34:16.566Z,999.84
2023-05-10T05:35:17.671Z,999.85
2023-05-10T05:36:18.180Z,999.89
2023-05-10T05:37:19.035Z,999.88
2023-05-10T05:38:20.000Z,999.89
2023-05-10T05:39:20.863Z,999.90
2023-05-10T05:40:21.737Z,999.89
2023-05-10T05:41:22.612Z,999.89
2023-05-10T05:42:23.506Z,999.90
2023-05-10T05:43:24.468Z,999.92
2023-05-10T05:44:25.356Z,999.92
2023-05-10T05:45:27.542Z,999.92
2023-05-10T05:46:27.053Z,999.93
2023-05-10T05:47:27.468Z,999.94
2023-05-10T05:48:28.338Z,999.94
2023-05-10T05:49:29.229Z,999.96
2023-05-10T05:50:30.114Z,999.96
2023-05-10T05:51:31.366Z,999.97
2023-05-10T05:52:31.759Z,999.97
2023-05-10T05:53:32.651Z,999.99
2023-05-10T05:54:33.517Z,999.99
2023-05-10T05:55:34.697Z,1000.02
2023-05-10T05:56:35.082Z,1000.03
2023-05-10T05:57:35.955Z,1000.04
2023-05-10T05:58:37.229Z,1000.05
2023-05-10T05:59:37.582Z,1000.07
2023-05-10T06:00:38.467Z,1000.07
2023-05-10T06:01:39.369Z,1000.06
2023-05-10T06:02:40.333Z,1000.07
2023-05-10T06:03:41.002Z,1000.08
2023-05-10T06:04:44.709Z,1000.09
2023-05-10T06:05:42.261Z,1000.09
2023-05-10T06:06:43.185Z,1000.11
2023-05-10T06:07:44.078Z,1000.12
2023-05-10T06:08:45.011Z,1000.12
2023-05-10T06:09:45.933Z,1000.14
2023-05-10T06:10:48.407Z,1000.14
2023-05-10T06:11:47.955Z,1000.14
2023-05-10T06:12:48.480Z,1000.14
2023-05-10T06:13:48.967Z,1000.13
2023-05-10T06:14:49.847Z,1000.10
2023-05-10T06:15:50.773Z,1000.08
2023-05-10T06:16:51.767Z,1000.08
2023-05-10T06:17:53.440Z,1000.08
2023-05-10T06:18:53.856Z,1000.11
2023-05-10T06:19:54.240Z,1000.13
2023-05-10T06:20:55.127Z,1000.15
2023-05-10T06:21:56.026Z,1000.17
2023-05-10T06:22:59.514Z,1000.18
2023-05-10T06:23:58.052Z,1000.18
2023-05-10T06:24:58.543Z,1000.19
2023-05-10T06:26:02.034Z,1000.20
2023-05-10T06:27:01.240Z,1000.21
2023-05-10T06:28:01.415Z,1000.23
2023-05-10T06:29:05.090Z,1000.22
2023-05-10T06:30:12.267Z,1000.22
2023-05-10T06:31:04.311Z,1000.23
2023-05-10T06:32:04.195Z,1000.23
2023-05-10T06:33:05.204Z,1000.24
2023-05-10T06:34:05.904Z,1000.24
2023-05-10T06:35:06.893Z,1000.23
2023-05-10T06:36:07.747Z,1000.23
2023-05-10T06:37:08.690Z,1000.23
2023-05-10T06:38:09.579Z,1000.25
2023-05-10T06:39:10.526Z,1000.27
2023-05-10T06:40:11.386Z,1000.27
2023-05-10T06:41:12.283Z,1000.30
2023-05-10T06:42:13.212Z,1000.30
2023-05-10T06:43:14.103Z,1000.32
2023-05-10T06:44:15.053Z,1000.33
2023-05-10T06:45:37.289Z,1000.36
2023-05-10T06:46:16.725Z,1000.40
2023-05-10T06:47:17.603Z,1000.42
2023-05-10T06:48:18.585Z,1000.43
2023-05-10T06:49:19.555Z,1000.45
2023-05-10T06:50:20.455Z,1000.46
2023-05-10T06:51:21.352Z,1000.47
2023-05-10T06:52:22.537Z,1000.46
2023-05-10T06:53:22.935Z,1000.46
2023-05-10T06:54:23.926Z,1000.46
2023-05-10T06:55:24.417Z,1000.47
2023-05-10T06:56:25.353Z,1000.47
2023-05-10T06:57:31.612Z,1000.48
2023-05-10T06:58:29.440Z,1000.47
2023-05-10T06:59:27.987Z,1000.47
2023-05-10T07:00:28.512Z,1000.46
2023-05-10T07:01:29.417Z,1000.46
2023-05-10T07:02:30.332Z,1000.46
2023-05-10T07:03:31.203Z,1000.45
2023-05-10T07:04:32.226Z,1000.46
2023-05-10T07:05:32.660Z,1000.47
2023-05-10T07:06:34.068Z,1000.47
2023-05-10T07:07:34.456Z,1000.45
2023-05-10T07:08:35.351Z,1000.45
2023-05-10T07:09:36.317Z,1000.46
2023-05-10T07:10:37.563Z,1000.46
2023-05-10T07:11:38.160Z,1000.47
2023-05-10T07:12:38.558Z,1000.45
2023-05-10T07:13:39.486Z,1000.47
2023-05-10T07:14:40.427Z,1000.47
2023-05-10T07:15:41.312Z,1000.45
2023-05-10T07:16:42.611Z,1000.45
2023-05-10T07:17:45.514Z,1000.44
2023-05-10T07:18:43.805Z,1000.44
2023-05-10T07:19:44.716Z,1000.46
2023-05-10T07:20:45.629Z,1000.47
2023-05-10T07:21:46.553Z,1000.49
2023-05-10T07:22:48.799Z,1000.51
2023-05-10T07:23:48.157Z,1000.54
2023-05-10T07:24:49.228Z,1000.52
2023-05-10T07:25:49.602Z,1000.54
2023-05-10T07:26:50.492Z,1000.54
2023-05-10T07:27:51.393Z,1000.55
2023-05-10T07:28:52.294Z,1000.59
2023-05-10T07:29:53.182Z,1000.62
2023-05-10T07:30:54.132Z,1000.65
2023-05-10T07:31:56.507Z,1000.66
2023-05-10T07:32:55.498Z,1000.67
2023-05-10T07:33:56.417Z,1000.67
2023-05-10T07:34:57.308Z,1000.67
2023-05-10T07:35:58.266Z,1000.67
2023-05-10T07:36:59.187Z,1000.67
2023-05-10T07:38:00.091Z,1000.68
2023-05-10T07:39:01.114Z,1000.70
2023-05-10T07:40:02.073Z,1000.70
2023-05-10T07:41:02.562Z,1000.69
2023-05-10T07:42:03.451Z,1000.68
2023-05-10T07:43:04.434Z,1000.67
2023-05-10T07:44:05.306Z,1000.66
2023-05-10T07:45:06.625Z,1000.66
2023-05-10T07:46:07.242Z,1000.64
2023-05-10T07:47:07.864Z,1000.65
2023-05-10T07:48:08.442Z,1000.66
2023-05-10T07:49:09.318Z,1000.66
2023-05-10T07:50:10.081Z,1000.66
2023-05-10T07:51:12.190Z,1000.69
2023-05-10T07:52:11.919Z,1000.69
2023-05-10T07:53:12.450Z,1000.69
2023-05-10T07:54:13.627Z,1000.71
2023-05-10T07:55:14.689Z,1000.72
2023-05-10T07:56:14.769Z,1000.73
2023-05-10T07:57:17.626Z,1000.77
2023-05-10T07:58:16.633Z,1000.78
2023-05-10T07:59:17.858Z,1000.84
2023-05-10T08:00:18.492Z,1000.83
2023-05-10T08:01:19.691Z,1000.83
2023-05-10T08:02:19.701Z,1000.83
2023-05-10T08:03:20.211Z,1000.83
2023-05-10T08:04:21.154Z,1000.83
2023-05-10T08:05:21.830Z,1000.83
2023-05-10T08:06:22.528Z,1000.84
2023-05-10T08:07:23.241Z,1000.85
2023-05-10T08:08:23.670Z,1000.85
2023-05-10T08:09:24.555Z,1000.87
2023-05-10T08:10:26.969Z,1000.87
2023-05-10T08:11:26.347Z,1000.87
2023-05-10T08:12:27.985Z,1000.91
2023-05-10T08:13:28.562Z,1000.89
2023-05-10T08:14:29.987Z,1000.89
2023-05-10T08:15:29.579Z,1000.89
2023-05-10T08:16:30.249Z,1000.93
2023-05-10T08:17:30.705Z,1000.91
2023-05-10T08:18:31.626Z,1000.93
2023-05-10T08:19:32.555Z,1000.92
2023-05-10T08:20:33.547Z,1000.91
2023-05-10T08:21:34.009Z,1000.95
2023-05-10T08:22:34.963Z,1000.92
2023-05-10T08:23:36.188Z,1000.92
2023-05-10T08:24:36.595Z,1000.92
2023-05-10T08:25:37.538Z,1000.92
2023-05-10T08:26:38.410Z,1000.92
2023-05-10T08:27:39.284Z,1000.92
2023-05-10T08:28:40.197Z,1000.92
2023-05-10T08:29:49.487Z,1000.92
2023-05-10T08:30:42.965Z,1000.91
2023-05-10T08:31:42.961Z,1000.94
2023-05-10T08:32:43.467Z,1000.96
2023-05-10T08:33:44.679Z,1000.98
2023-05-10T08:34:45.250Z,1001.00
2023-05-10T08:35:46.235Z,1001.02
2023-05-10T08:36:48.435Z,1001.04
2023-05-10T08:37:47.885Z,1001.05
2023-05-10T08:38:50.289Z,1001.08
2023-05-10T08:39:49.882Z,1001.11
2023-05-10T08:40:50.400Z,1001.10
2023-05-10T08:41:51.444Z,1001.12
2023-05-10T08:42:52.293Z,1001.14
2023-05-10T08:43:53.925Z,1001.16
2023-05-10T08:44:53.352Z,1001.17
2023-05-10T08:45:53.878Z,1001.18
2023-05-10T08:46:54.795Z,1001.18
2023-05-10T08:47:56.054Z,1001.21
2023-05-10T08:48:56.644Z,1001.20
2023-05-10T08:49:57.116Z,1001.20
2023-05-10T08:51:01.104Z,1001.19
2023-05-10T08:52:00.129Z,1001.19
2023-05-10T08:53:00.127Z,1001.18
2023-05-10T08:53:59.760Z,1001.18
2023-05-10T08:55:00.379Z,1001.19
2023-05-10T08:56:01.226Z,1001.17
2023-05-10T08:57:02.796Z,1001.18
2023-05-10T08:58:03.305Z,1001.21
2023-05-10T08:59:03.863Z,1001.18
2023-05-10T09:00:03.863Z,1001.23
2023-05-10T09:01:11.547Z,1001.21
2023-05-10T09:02:06.342Z,1001.20
2023-05-10T09:03:05.872Z,1001.20
2023-05-10T09:04:06.447Z,1001.20
2023-05-10T09:05:28.416Z,1001.22
2023-05-10T09:06:09.008Z,1001.23
2023-05-10T09:07:12.679Z,1001.23
2023-05-10T09:08:11.100Z,1001.23
2023-05-10T09:09:12.580Z,1001.24
2023-05-10T09:10:13.143Z,1001.26
2023-05-10T09:11:13.213Z,1001.28
2023-05-10T09:12:13.231Z,1001.30
2023-05-10T09:13:13.063Z,1001.32
2023-05-10T09:14:14.629Z,1001.32
2023-05-10T09:15:13.692Z,1001.38
2023-05-10T09:16:21.640Z,1001.34
2023-05-10T09:17:17.733Z,1001.34
2023-05-10T09:20:07.438Z,1001.37
2023-05-10T09:21:05.859Z,1001.37
2023-05-10T09:22:08.354Z,1001.38
2023-05-10T09:23:07.328Z,1001.37
2023-05-10T09:24:08.276Z,1001.37
2023-05-10T09:25:14.738Z,1001.37
2023-05-10T09:26:10.066Z,1001.37
2023-05-10T09:27:10.772Z,1001.42
2023-05-10T09:28:11.248Z,1001.43
2023-05-10T09:29:12.262Z,1001.43
2023-05-10T09:30:12.827Z,1001.43
2023-05-10T09:31:14.910Z,1001.47
2023-05-10T09:32:14.345Z,1001.48
2023-05-10T09:33:15.441Z,1001.51
2023-05-10T09:34:15.919Z,1001.53
2023-05-10T09:35:16.863Z,1001.53
2023-05-10T09:36:17.235Z,1001.55
2023-05-10T09:37:17.900Z,1001.56
2023-05-10T09:38:18.566Z,1001.54
2023-05-10T09:39:19.428Z,1001.52
2023-05-10T09:40:20.065Z,1001.53
2023-05-10T09:41:20.462Z,1001.54
2023-05-10T09:42:21.403Z,1001.58
2023-05-10T09:43:22.281Z,1001.59
2023-05-10T09:44:23.282Z,1001.60
2023-05-10T09:45:24.126Z,1001.61
2023-05-10T09:46:25.148Z,1001.57
2023-05-10T09:47:25.674Z,1001.59
2023-05-10T09:48:26.175Z,1001.62
2023-05-10T09:49:27.058Z,1001.58
2023-05-10T09:50:27.960Z,1001.58
2023-05-10T09:51:29.011Z,1001.60
2023-05-10T09:52:29.432Z,1001.62
2023-05-10T09:53:30.315Z,1001.64
2023-05-10T09:54:31.219Z,1001.67
2023-05-10T09:55:32.074Z,1001.64
2023-05-10T09:56:32.961Z,1001.65
2023-05-10T09:57:35.222Z,1001.69
2023-05-10T09:58:34.765Z,1001.64
2023-05-10T09:59:35.642Z,1001.68
2023-05-10T10:00:36.520Z,1001.65
2023-05-10T10:01:37.592Z,1001.67
2023-05-10T10:02:38.204Z,1001.65
2023-05-10T10:03:38.607Z,1001.66
2023-05-10T10:04:39.513Z,1001.67
2023-05-10T10:05:40.367Z,1001.69
2023-05-10T10:06:41.273Z,1001.67
2023-05-10T10:07:42.181Z,1001.68
2023-05-10T10:08:43.093Z,1001.69
2023-05-10T10:09:43.998Z,1001.70
2023-05-10T10:10:44.975Z,1001.69
2023-05-10T10:11:45.797Z,1001.71
2023-05-10T10:12:46.754Z,1001.73
2023-05-10T10:13:47.643Z,1001.72
2023-05-10T10:14:48.538Z,1001.68
2023-05-10T10:15:49.431Z,1001.69
2023-05-10T10:17:05.844Z,1001.72
2023-05-10T10:17:52.206Z,1001.73
2023-05-10T10:18:51.650Z,1001.72
2023-05-10T10:19:52.558Z,1001.67
2023-05-10T10:20:53.423Z,1001.68
2023-05-10T10:21:54.316Z,1001.68
2023-05-10T10:22:55.240Z,1001.65
2023-05-10T10:23:56.145Z,1001.67
2023-05-10T10:24:57.034Z,1001.67
2023-05-10T10:25:57.901Z,1001.67
2023-05-10T10:26:58.782Z,1001.66
2023-05-10T10:27:59.727Z,1001.67
2023-05-10T10:29:00.593Z,1001.66
2023-05-10T10:30:01.480Z,1001.66
2023-05-10T10:31:02.494Z,1001.67
2023-05-10T10:32:02.849Z,1001.71
2023-05-10T10:33:07.941Z,1001.69
2023-05-10T10:34:05.538Z,1001.67
2023-05-10T10:35:05.508Z,1001.69
2023-05-10T10:36:06.347Z,1001.67
2023-05-10T10:37:07.256Z,1001.72
2023-05-10T10:38:08.146Z,1001.71
2023-05-10T10:39:09.029Z,1001.68
2023-05-10T10:40:09.937Z,1001.66
2023-05-10T10:41:10.809Z,1001.70
2023-05-10T10:42:11.706Z,1001.72
2023-05-10T10:43:12.648Z,1001.70
2023-05-10T10:44:13.476Z,1001.66
2023-05-10T10:45:14.629Z,1001.62
2023-05-10T10:46:15.403Z,1001.72
2023-05-10T10:47:42.057Z,1001.68
2023-05-10T10:48:16.424Z,1001.71
2023-05-10T10:49:17.416Z,1001.70
2023-05-10T10:50:17.891Z,1001.71
2023-05-10T10:51:18.784Z,1001.75
2023-05-10T10:52:19.783Z,1001.69
2023-05-10T10:53:20.313Z,1001.70
2023-05-10T10:54:20.751Z,1001.72
2023-05-10T10:55:21.614Z,1001.64
2023-05-10T10:56:22.515Z,1001.64
2023-05-10T10:57:23.385Z,1001.67
2023-05-10T10:58:24.316Z,1001.63
2023-05-10T10:59:25.195Z,1001.66
2023-05-10T11:00:26.194Z,1001.66
2023-05-10T11:01:27.077Z,1001.67
2023-05-10T11:02:30.063Z,1001.68
2023-05-10T11:03:28.709Z,1001.71
2023-05-10T11:04:29.177Z,1001.79
2023-05-10T11:05:29.695Z,1001.76
2023-05-10T11:06:30.665Z,1001.71
2023-05-10T11:07:31.594Z,1001.80
2023-05-10T11:08:32.616Z,1001.74
2023-05-10T11:09:33.020Z,1001.78
2023-05-10T11:10:33.956Z,1001.73
2023-05-10T11:11:34.968Z,1001.74
2023-05-10T11:12:35.396Z,1001.79
2023-05-10T11:13:36.397Z,1001.72
2023-05-10T11:14:37.027Z,1001.75
2023-05-10T11:15:37.490Z,1001.74
2023-05-10T11:16:37.967Z,1001.76
2023-05-10T11:17:39.019Z,1001.77
2023-05-10T11:18:39.486Z,1001.78
2023-05-10T11:19:40.489Z,1001.73
2023-05-10T11:20:40.971Z,1001.75
2023-05-10T11:21:41.876Z,1001.76
2023-05-10T11:22:42.894Z,1001.77
2023-05-10T11:23:43.323Z,1001.78
2023-05-10T11:24:44.212Z,1001.81
2023-05-10T11:25:45.120Z,1001.77
2023-05-10T11:26:46.045Z,1001.82
2023-05-10T11:27:47.086Z,1001.80
2023-05-10T11:28:48.314Z,1001.92
2023-05-10T11:29:48.207Z,1001.82
2023-05-10T11:30:49.203Z,1001.82
2023-05-10T11:31:50.091Z,1001.82
2023-05-10T11:32:51.069Z,1001.82
2023-05-10T11:33:51.543Z,1001.80
2023-05-10T11:34:51.991Z,1001.81
2023-05-10T11:35:52.958Z,1001.82
2023-05-10T11:36:53.935Z,1001.81
2023-05-10T11:37:54.374Z,1001.83
2023-05-10T11:38:55.352Z,1001.85
2023-05-10T11:39:56.220Z,1001.84
2023-05-10T11:40:57.143Z,1001.87
2023-05-10T11:41:58.043Z,1001.86
2023-05-10T11:42:58.914Z,1001.88
2023-05-10T11:43:59.895Z,1001.92
2023-05-10T11:45:01.426Z,1001.93
2023-05-10T11:46:01.291Z,1001.90
2023-05-10T11:47:02.283Z,1001.87
2023-05-10T11:48:02.762Z,1001.89
2023-05-10T11:49:03.312Z,1001.90
2023-05-10T11:50:03.726Z,1001.89
2023-05-10T11:51:04.776Z,1001.92
2023-05-10T11:52:05.209Z,1001.94
2023-05-10T11:53:06.153Z,1001.93
2023-05-10T11:54:07.132Z,1001.94
2023-05-10T11:55:07.631Z,1001.94
2023-05-10T11:56:09.050Z,1001.95
2023-05-10T11:57:08.995Z,1002.06
2023-05-10T11:58:09.910Z,1002.02
2023-05-10T11:59:10.898Z,1002.02
2023-05-10T12:00:11.761Z,1002.00
2023-05-10T12:01:12.734Z,1001.97
2023-05-10T12:02:13.637Z,1001.98
2023-05-10T12:03:14.596Z,1002.01
2023-05-10T12:04:15.270Z,1002.00
2023-05-10T12:05:15.713Z,1001.97
2023-05-10T12:06:16.578Z,1002.00
2023-05-10T12:07:17.462Z,1002.05
2023-05-10T12:08:18.336Z,1002.02
2023-05-10T12:09:31.570Z,1002.00
2023-05-10T12:10:21.165Z,1002.04
2023-05-10T12:11:21.055Z,1002.04
2023-05-10T12:12:21.977Z,1002.02
2023-05-10T12:13:22.869Z,1002.03
2023-05-10T12:14:23.820Z,1002.05
2023-05-10T12:15:25.669Z,1002.11
2023-05-10T12:16:25.637Z,1002.11
2023-05-10T12:17:26.595Z,1002.24
2023-05-10T12:18:27.574Z,1002.08
2023-05-10T12:19:28.590Z,1002.09
2023-05-10T12:20:28.982Z,1002.10
2023-05-10T12:21:29.875Z,1002.12
2023-05-10T12:22:30.815Z,1002.11
2023-05-10T12:23:31.699Z,1002.05
2023-05-10T12:24:32.603Z,1002.05
2023-05-10T12:25:33.523Z,1002.10
2023-05-10T12:26:34.501Z,1002.09
2023-05-10T12:27:35.424Z,1002.13
2023-05-10T12:28:36.339Z,1002.09